Time;durP1;ratioP1;P1;durP2;ratioP2;P2;SDS_P1;SDS_P2;PMS_P1;PMS_P2;Temp;Humidity;BMP_temperature;BMP_pressure;BME280_temperature;BME280_humidity;BME280_pressure;Samples;Min_cycle;Max_cycle;Signal;HPM_P1;HPM_P2
2023/01/29 00:02:02;;;;;;;;;;;6.10;99.50;;;;;;5039416;28;19980;-61
2023/01/29 00:04:28;;;;;;;;;;;6.00;99.50;;;;;;5039590;28;20295;-61
2023/01/29 00:06:53;;;;;;;;;;;6.00;99.30;;;;;;5039964;28;19957;-61
2023/01/29 00:09:19;;;;;;;;;;;6.00;99.20;;;;;;5039948;28;19980;-61
2023/01/29 00:11:44;;;;;;;;;;;6.10;99.20;;;;;;5039604;28;19962;-61
2023/01/29 00:14:10;;;;;;;;;;;6.10;99.60;;;;;;5039786;28;19909;-61
2023/01/29 00:16:36;;;;;;;;;;;6.00;99.40;;;;;;5039644;28;19916;-61
2023/01/29 00:19:01;;;;;;;;;;;6.00;99.40;;;;;;5040140;28;19975;-61
2023/01/29 00:21:29;;;;;;;;;;;6.00;99.90;;;;;;5039770;28;20016;-61
2023/01/29 00:23:55;;;;;;;;;;;6.00;99.70;;;;;;5039740;28;19909;-61
2023/01/29 00:26:21;;;;;;;;;;;6.00;99.90;;;;;;5039889;28;19916;-61
2023/01/29 00:28:46;;;;;;;;;;;6.00;99.90;;;;;;5039491;28;19975;-61
2023/01/29 00:31:13;;;;;;;;;;;6.00;99.70;;;;;;5039624;28;19932;-61
2023/01/29 00:33:39;;;;;;;;;;;6.00;99.90;;;;;;5039567;28;19932;-61
2023/01/29 00:36:06;;;;;;;;;;;6.00;99.90;;;;;;5039584;28;19909;-61
2023/01/29 00:38:32;;;;;;;;;;;6.00;99.90;;;;;;5039215;28;19909;-61
2023/01/29 00:46:32;;;;;;;;;;;6.00;99.40;;;;;;5039253;28;19916;-61
2023/01/29 00:48:57;;;;;;;;;;;5.90;99.90;;;;;;5039466;28;19909;-61
2023/01/29 00:51:23;;;;;;;;;;;5.90;99.90;;;;;;5039312;28;19917;-61
2023/01/29 00:53:48;;;;;;;;;;;5.90;99.90;;;;;;5038937;28;19909;-61
2023/01/29 00:56:14;;;;;;;;;;;5.90;99.60;;;;;;5039050;28;19909;-61
2023/01/29 00:58:39;;;;;;;;;;;5.90;99.70;;;;;;5039188;28;19909;-61
2023/01/29 01:01:05;;;;;;;;;;;5.90;99.80;;;;;;5038688;28;19921;-61
2023/01/29 01:03:33;;;;;;;;;;;6.00;99.90;;;;;;5039015;28;19916;-61
2023/01/29 01:06:06;;;;;;;;;;;5.90;99.50;;;;;;5038969;28;20327;-61
2023/01/29 01:11:16;;;;;;;;;;;5.90;99.40;;;;;;5038454;28;19916;-61
2023/01/29 01:13:42;;;;;;;;;;;5.90;99.60;;;;;;5038719;28;20385;-61
2023/01/29 01:16:11;;;;;;;;;;;5.90;99.60;;;;;;5038683;28;19910;-61
2023/01/29 01:18:37;;;;;;;;;;;5.90;99.50;;;;;;5038488;28;19932;-61
2023/01/29 01:21:02;;;;;;;;;;;5.90;99.90;;;;;;5038707;28;19913;-61
2023/01/29 01:23:28;;;;;;;;;;;5.90;99.90;;;;;;5038789;28;19916;-61
2023/01/29 01:25:54;;;;;;;;;;;5.90;99.90;;;;;;5038594;28;19948;-61
2023/01/29 01:28:20;;;;;;;;;;;5.90;99.90;;;;;;5037700;28;19916;-61
2023/01/29 01:30:45;;;;;;;;;;;6.00;99.90;;;;;;5038068;28;20011;-61
2023/01/29 01:33:11;;;;;;;;;;;6.00;99.90;;;;;;5038204;28;19909;-61
2023/01/29 01:35:37;;;;;;;;;;;5.90;99.90;;;;;;5038351;28;20383;-61
2023/01/29 01:38:03;;;;;;;;;;;6.00;99.90;;;;;;5038049;28;19931;-61
2023/01/29 01:40:29;;;;;;;;;;;5.90;99.90;;;;;;5020312;28;19952;-61
2023/01/29 01:42:58;;;;;;;;;;;6.00;99.90;;;;;;5037982;28;20000;-61
2023/01/29 01:45:24;;;;;;;;;;;6.00;99.90;;;;;;5038247;28;19937;-61
2023/01/29 01:47:55;;;;;;;;;;;6.00;99.90;;;;;;5038214;28;20281;-61
2023/01/29 01:50:23;;;;;;;;;;;6.00;99.90;;;;;;5038230;28;20272;-61
2023/01/29 01:52:51;;;;;;;;;;;6.00;99.90;;;;;;5037898;28;19909;-61
2023/01/29 01:55:18;;;;;;;;;;;6.00;99.90;;;;;;5038135;28;19981;-61
2023/01/29 01:57:46;;;;;;;;;;;6.00;99.90;;;;;;5037894;28;19959;-61
2023/01/29 02:00:14;;;;;;;;;;;5.90;99.90;;;;;;5037863;28;19921;-61
2023/01/29 02:10:58;;;;;;;;;;;5.90;99.90;;;;;;5038199;28;19932;-61
2023/01/29 02:13:23;;;;;;;;;;;5.90;99.90;;;;;;5038000;28;20366;-61
2023/01/29 02:15:49;;;;;;;;;;;5.80;99.90;;;;;;5038021;28;19968;-61
2023/01/29 02:18:16;;;;;;;;;;;5.80;99.90;;;;;;5037611;28;19909;-61
2023/01/29 02:20:43;;;;;;;;;;;5.80;99.90;;;;;;5037877;28;19959;-61
2023/01/29 02:23:22;;;;;;;;;;;5.80;99.90;;;;;;5038160;28;19909;-61
2023/01/29 02:26:06;;;;;;;;;;;5.90;99.90;;;;;;5037717;28;20261;-61
2023/01/29 02:28:41;;;;;;;;;;;5.80;99.90;;;;;;5038063;28;19909;-61
2023/01/29 02:31:11;;;;;;;;;;;5.80;99.80;;;;;;5037809;28;19909;-61
2023/01/29 02:33:40;;;;;;;;;;;5.80;99.90;;;;;;5037666;28;19913;-61
2023/01/29 02:36:12;;;;;;;;;;;5.70;99.70;;;;;;5037461;28;19909;-61
2023/01/29 02:38:45;;;;;;;;;;;5.70;99.60;;;;;;5039438;28;19913;-61
2023/01/29 02:41:26;;;;;;;;;;;5.70;99.90;;;;;;5041467;28;19913;-61
2023/01/29 02:43:59;;;;;;;;;;;5.70;99.80;;;;;;5023640;28;19913;-61
2023/01/29 02:46:34;;;;;;;;;;;5.70;99.90;;;;;;5041897;28;19916;-61
2023/01/29 02:49:12;;;;;;;;;;;5.70;99.90;;;;;;5041599;28;19936;-61
2023/01/29 02:51:37;;;;;;;;;;;5.80;99.90;;;;;;5041819;28;20443;-61
2023/01/29 02:54:07;;;;;;;;;;;5.80;99.90;;;;;;5041282;28;19913;-61
2023/01/29 02:56:52;;;;;;;;;;;5.80;99.90;;;;;;5041050;28;19991;-61
2023/01/29 02:59:29;;;;;;;;;;;5.80;99.90;;;;;;5040956;28;20365;-61
2023/01/29 03:01:57;;;;;;;;;;;5.80;99.90;;;;;;5040737;28;19922;-61
2023/01/29 03:04:28;;;;;;;;;;;5.80;99.90;;;;;;5041288;28;20027;-61
2023/01/29 03:06:56;;;;;;;;;;;5.80;99.90;;;;;;5041244;28;19932;-61
2023/01/29 03:09:27;;;;;;;;;;;5.80;99.90;;;;;;5041037;28;19976;-61
2023/01/29 03:11:55;;;;;;;;;;;5.80;99.90;;;;;;5041909;28;19913;-61
2023/01/29 03:15:10;;;;;;;;;;;5.80;99.90;;;;;;5040881;28;19944;-61
2023/01/29 03:17:15;;;;;;;;;;;5.70;99.90;;;;;;5040695;28;19909;-61
2023/01/29 03:19:42;;;;;;;;;;;5.70;99.90;;;;;;5040728;28;19915;-61
2023/01/29 03:22:09;;;;;;;;;;;5.70;99.90;;;;;;5040906;28;19913;-61
2023/01/29 03:33:04;;;;;;;;;;;5.70;99.90;;;;;;5040797;28;19916;-61
2023/01/29 03:35:34;;;;;;;;;;;5.70;99.90;;;;;;5040491;28;20016;-61
2023/01/29 03:38:00;;;;;;;;;;;5.70;99.90;;;;;;5040188;28;19909;-61
2023/01/29 03:40:28;;;;;;;;;;;5.70;99.90;;;;;;5040884;28;19909;-61
2023/01/29 03:43:02;;;;;;;;;;;5.70;99.90;;;;;;5040335;28;19920;-61
2023/01/29 03:45:28;;;;;;;;;;;5.80;99.90;;;;;;5040335;28;19913;-61
2023/01/29 03:48:11;;;;;;;;;;;5.70;99.90;;;;;;5040445;28;19959;-61
2023/01/29 03:50:48;;;;;;;;;;;5.70;99.90;;;;;;5039675;28;19916;-61
2023/01/29 03:53:34;;;;;;;;;;;5.70;99.90;;;;;;5040336;28;19947;-61
2023/01/29 03:56:05;;;;;;;;;;;5.70;99.90;;;;;;5040029;28;20280;-61
2023/01/29 03:58:46;;;;;;;;;;;5.70;99.90;;;;;;5040023;28;19973;-61
2023/01/29 04:01:18;;;;;;;;;;;5.70;99.90;;;;;;5039970;28;19921;-61
2023/01/29 04:03:49;;;;;;;;;;;5.70;99.90;;;;;;5040010;28;19920;-61
2023/01/29 04:06:22;;;;;;;;;;;5.60;99.90;;;;;;5039933;28;19909;-61
2023/01/29 04:08:57;;;;;;;;;;;5.70;99.90;;;;;;5040070;28;20353;-61
2023/01/29 04:11:23;;;;;;;;;;;5.70;99.90;;;;;;5039894;28;20361;-61
2023/01/29 04:13:50;;;;;;;;;;;5.70;99.90;;;;;;5039805;28;19944;-61
2023/01/29 04:16:24;;;;;;;;;;;5.70;99.90;;;;;;5039745;28;19909;-61
2023/01/29 04:18:50;;;;;;;;;;;5.60;99.90;;;;;;5039722;28;19995;-61
2023/01/29 04:21:16;;;;;;;;;;;5.60;99.90;;;;;;5039915;28;19913;-61
2023/01/29 04:23:41;;;;;;;;;;;5.60;99.90;;;;;;5039622;28;19909;-61
2023/01/29 04:26:26;;;;;;;;;;;5.60;99.90;;;;;;5039901;28;19917;-61
2023/01/29 04:29:10;;;;;;;;;;;5.60;99.90;;;;;;5039721;28;19909;-61
2023/01/29 04:31:46;;;;;;;;;;;5.70;99.90;;;;;;5039441;28;19913;-61
2023/01/29 04:34:14;;;;;;;;;;;5.70;99.90;;;;;;5042954;28;19912;-61
2023/01/29 04:36:45;;;;;;;;;;;5.60;99.90;;;;;;5059464;28;19916;-61
2023/01/29 04:39:17;;;;;;;;;;;5.30;99.90;;;;;;5059661;28;20007;-61
2023/01/29 04:42:06;;;;;;;;;;;5.60;99.90;;;;;;5059061;28;19917;-61
2023/01/29 04:44:40;;;;;;;;;;;5.70;99.90;;;;;;5059316;28;19909;-61
2023/01/29 04:47:08;;;;;;;;;;;5.60;99.90;;;;;;5059375;28;19909;-61
2023/01/29 04:49:46;;;;;;;;;;;5.60;99.90;;;;;;5059059;28;19991;-61
2023/01/29 04:52:16;;;;;;;;;;;5.60;99.90;;;;;;5059237;28;19909;-61
2023/01/29 04:54:56;;;;;;;;;;;5.60;99.90;;;;;;5059132;28;19909;-61
2023/01/29 04:57:27;;;;;;;;;;;5.60;99.90;;;;;;5058940;28;19913;-61
2023/01/29 04:59:58;;;;;;;;;;;5.70;99.90;;;;;;5058855;28;20368;-61
2023/01/29 05:02:25;;;;;;;;;;;5.70;99.90;;;;;;5058032;28;19967;-61
2023/01/29 05:04:52;;;;;;;;;;;5.70;99.90;;;;;;5058752;28;19913;-61
2023/01/29 05:07:18;;;;;;;;;;;5.60;99.90;;;;;;5059052;28;19912;-61
2023/01/29 05:09:44;;;;;;;;;;;5.60;99.90;;;;;;5058656;28;20356;-61
2023/01/29 05:12:11;;;;;;;;;;;5.60;99.90;;;;;;5058441;28;19909;-61
2023/01/29 05:14:38;;;;;;;;;;;5.60;99.90;;;;;;5058919;28;19999;-61
2023/01/29 05:17:08;;;;;;;;;;;5.60;99.90;;;;;;5058688;28;19908;-61
2023/01/29 05:19:33;;;;;;;;;;;5.60;99.90;;;;;;5058695;28;19931;-61
2023/01/29 05:21:59;;;;;;;;;;;5.60;99.90;;;;;;5058127;28;19913;-61
2023/01/29 05:24:25;;;;;;;;;;;5.60;99.90;;;;;;5058413;28;19912;-61
2023/01/29 05:29:37;;;;;;;;;;;5.70;99.90;;;;;;5058608;28;20292;-61
2023/01/29 05:32:03;;;;;;;;;;;5.70;99.90;;;;;;5058273;28;19909;-61
2023/01/29 05:34:28;;;;;;;;;;;5.70;99.90;;;;;;5040503;28;19909;-61
2023/01/29 05:36:54;;;;;;;;;;;5.70;99.90;;;;;;5040315;28;19931;-61
2023/01/29 05:39:20;;;;;;;;;;;5.70;99.90;;;;;;5058257;28;19909;-61
2023/01/29 05:41:45;;;;;;;;;;;5.60;99.90;;;;;;5058262;28;19913;-61
2023/01/29 05:44:11;;;;;;;;;;;5.60;99.90;;;;;;5058244;28;19908;-61
2023/01/29 05:46:37;;;;;;;;;;;5.60;99.90;;;;;;5057947;28;19913;-61
2023/01/29 05:49:03;;;;;;;;;;;5.60;99.90;;;;;;5058312;28;19909;-61
2023/01/29 05:51:29;;;;;;;;;;;5.60;99.90;;;;;;5057980;28;19915;-61
2023/01/29 05:53:55;;;;;;;;;;;5.60;99.90;;;;;;5058078;28;19909;-61
2023/01/29 05:56:20;;;;;;;;;;;5.70;99.90;;;;;;5057915;28;19909;-61
2023/01/29 05:58:46;;;;;;;;;;;5.60;99.90;;;;;;5058245;28;19909;-61
2023/01/29 06:01:13;;;;;;;;;;;5.60;99.90;;;;;;5057711;28;20015;-61
2023/01/29 06:03:39;;;;;;;;;;;5.60;99.90;;;;;;5057983;28;19931;-61
2023/01/29 06:06:04;;;;;;;;;;;5.60;99.90;;;;;;5057827;28;20344;-61
2023/01/29 06:08:30;;;;;;;;;;;5.60;99.90;;;;;;5057680;28;19963;-61
2023/01/29 06:10:55;;;;;;;;;;;5.60;99.90;;;;;;5057776;28;19963;-61
2023/01/29 06:13:21;;;;;;;;;;;5.60;99.90;;;;;;5057790;28;19975;-61
2023/01/29 06:15:47;;;;;;;;;;;5.60;99.90;;;;;;5057369;28;19923;-61
2023/01/29 06:18:12;;;;;;;;;;;5.50;99.90;;;;;;5057973;28;19920;-61
2023/01/29 06:20:38;;;;;;;;;;;5.60;99.90;;;;;;5057635;28;19931;-61
2023/01/29 06:23:04;;;;;;;;;;;5.60;99.90;;;;;;5057544;28;19952;-61
2023/01/29 06:25:30;;;;;;;;;;;5.60;99.90;;;;;;5057414;28;19970;-61
2023/01/29 06:27:56;;;;;;;;;;;5.60;99.90;;;;;;5057980;28;19913;-61
2023/01/29 06:30:21;;;;;;;;;;;5.50;99.90;;;;;;5057571;28;19909;-61
2023/01/29 06:32:47;;;;;;;;;;;5.60;99.90;;;;;;5057392;28;19913;-61
2023/01/29 06:35:13;;;;;;;;;;;5.60;99.90;;;;;;5057561;28;19913;-61
2023/01/29 06:37:38;;;;;;;;;;;5.60;99.90;;;;;;5057944;28;19916;-61
2023/01/29 06:40:04;;;;;;;;;;;5.50;99.90;;;;;;5057511;28;19909;-61
2023/01/29 06:42:30;;;;;;;;;;;5.50;99.90;;;;;;5057138;28;19913;-61
2023/01/29 06:44:56;;;;;;;;;;;5.40;99.90;;;;;;5057456;28;19917;-61
2023/01/29 06:47:22;;;;;;;;;;;5.30;99.90;;;;;;5057652;28;20375;-61
2023/01/29 06:49:48;;;;;;;;;;;5.40;99.90;;;;;;5057368;28;19913;-61
2023/01/29 06:52:13;;;;;;;;;;;5.40;99.90;;;;;;5057539;28;19915;-61
2023/01/29 06:54:39;;;;;;;;;;;5.40;99.90;;;;;;5057780;28;19971;-61
2023/01/29 06:57:04;;;;;;;;;;;5.50;99.90;;;;;;5057567;28;19909;-61
2023/01/29 06:59:30;;;;;;;;;;;5.50;99.90;;;;;;5057513;28;20309;-61
2023/01/29 07:01:56;;;;;;;;;;;5.40;99.90;;;;;;5056911;28;19921;-61
2023/01/29 07:04:21;;;;;;;;;;;5.40;99.90;;;;;;5039205;28;19918;-61
2023/01/29 07:06:47;;;;;;;;;;;5.30;99.90;;;;;;5056634;28;19913;-61
2023/01/29 07:09:13;;;;;;;;;;;5.30;99.90;;;;;;5056788;28;19916;-61
2023/01/29 07:11:39;;;;;;;;;;;5.30;99.90;;;;;;5057010;28;19909;-61
2023/01/29 07:14:05;;;;;;;;;;;5.30;99.90;;;;;;5057212;28;19908;-61
2023/01/29 07:16:31;;;;;;;;;;;5.20;99.90;;;;;;5057012;28;20432;-61
2023/01/29 07:18:56;;;;;;;;;;;5.30;99.90;;;;;;5057356;28;19909;-61
2023/01/29 07:21:22;;;;;;;;;;;5.20;99.90;;;;;;5057301;28;19963;-61
2023/01/29 07:23:48;;;;;;;;;;;5.30;99.90;;;;;;5057373;28;19940;-61
2023/01/29 07:26:14;;;;;;;;;;;5.30;99.90;;;;;;5059976;28;19909;-61
2023/01/29 07:28:39;;;;;;;;;;;5.30;99.90;;;;;;5060469;28;19909;-61
2023/01/29 07:31:06;;;;;;;;;;;5.30;99.90;;;;;;5060692;28;19908;-61
2023/01/29 07:33:31;;;;;;;;;;;5.20;99.90;;;;;;5060881;28;19913;-61
2023/01/29 07:35:57;;;;;;;;;;;5.20;99.90;;;;;;5060670;28;19912;-61
2023/01/29 07:38:23;;;;;;;;;;;5.30;99.90;;;;;;5060358;28;19991;-61
2023/01/29 07:40:50;;;;;;;;;;;5.30;99.90;;;;;;5060094;28;19909;-61
2023/01/29 07:43:16;;;;;;;;;;;5.30;99.90;;;;;;5060253;28;19912;-61
2023/01/29 07:45:41;;;;;;;;;;;5.30;99.90;;;;;;5060409;28;19909;-61
2023/01/29 07:48:09;;;;;;;;;;;5.30;99.90;;;;;;5060056;28;19950;-61
2023/01/29 07:50:35;;;;;;;;;;;5.30;99.90;;;;;;5060278;28;20245;-61
2023/01/29 07:53:01;;;;;;;;;;;5.30;99.90;;;;;;5059905;28;19909;-61
2023/01/29 07:55:27;;;;;;;;;;;5.30;99.90;;;;;;5059779;28;19916;-61
2023/01/29 07:58:00;;;;;;;;;;;5.30;99.90;;;;;;5060010;28;19913;-61
2023/01/29 08:00:26;;;;;;;;;;;5.30;99.90;;;;;;5059723;28;20360;-61
2023/01/29 08:02:51;;;;;;;;;;;5.40;99.90;;;;;;5059819;28;19935;-61
2023/01/29 08:05:17;;;;;;;;;;;5.30;99.90;;;;;;5059917;28;19919;-61
2023/01/29 08:07:42;;;;;;;;;;;5.30;99.90;;;;;;5059952;28;20054;-61
2023/01/29 08:10:08;;;;;;;;;;;5.20;99.90;;;;;;5060118;28;20363;-61
2023/01/29 08:12:34;;;;;;;;;;;5.30;99.90;;;;;;5059457;28;19935;-61
2023/01/29 08:14:59;;;;;;;;;;;5.30;99.90;;;;;;5060028;28;19909;-61
2023/01/29 08:17:25;;;;;;;;;;;5.30;99.90;;;;;;5059291;28;19916;-61
2023/01/29 08:19:51;;;;;;;;;;;5.40;99.90;;;;;;5058582;28;19908;-61
2023/01/29 08:22:16;;;;;;;;;;;5.50;99.90;;;;;;5058512;28;19920;-61
2023/01/29 08:24:42;;;;;;;;;;;5.50;99.90;;;;;;5058761;28;19991;-61
2023/01/29 08:27:08;;;;;;;;;;;5.60;99.90;;;;;;5058517;28;19944;-61
2023/01/29 08:29:33;;;;;;;;;;;5.60;99.90;;;;;;5040580;28;20345;-61
2023/01/29 08:31:59;;;;;;;;;;;5.60;99.90;;;;;;5058666;28;19916;-61
2023/01/29 08:34:25;;;;;;;;;;;5.70;99.90;;;;;;5058641;28;19909;-61
2023/01/29 08:36:52;;;;;;;;;;;5.70;99.90;;;;;;5058363;28;20364;-61
2023/01/29 08:39:17;;;;;;;;;;;5.70;99.90;;;;;;5058955;28;19932;-61
2023/01/29 08:41:43;;;;;;;;;;;5.80;99.90;;;;;;5059006;28;19913;-61
2023/01/29 08:44:09;;;;;;;;;;;5.80;99.90;;;;;;5059087;28;20004;-61
2023/01/29 08:46:35;;;;;;;;;;;5.90;99.90;;;;;;5059326;28;19909;-61
2023/01/29 08:49:01;;;;;;;;;;;5.90;99.90;;;;;;5040962;28;19912;-61
2023/01/29 08:51:27;;;;;;;;;;;6.00;99.90;;;;;;5058926;28;19913;-61
2023/01/29 08:53:53;;;;;;;;;;;6.00;99.90;;;;;;5058989;28;19913;-61
2023/01/29 08:56:18;;;;;;;;;;;6.00;99.90;;;;;;5058758;28;19909;-61
2023/01/29 08:58:44;;;;;;;;;;;6.00;99.90;;;;;;5058720;28;19908;-61
2023/01/29 09:01:11;;;;;;;;;;;6.00;99.90;;;;;;5058498;28;20391;-61
2023/01/29 09:03:39;;;;;;;;;;;6.10;99.90;;;;;;5058742;28;19988;-61
2023/01/29 09:06:05;;;;;;;;;;;6.10;99.90;;;;;;5058584;28;20291;-61
2023/01/29 09:08:31;;;;;;;;;;;6.10;99.90;;;;;;5058390;28;19939;-61
2023/01/29 09:10:59;;;;;;;;;;;6.20;99.90;;;;;;5058438;28;19909;-61
2023/01/29 09:13:25;;;;;;;;;;;6.20;99.90;;;;;;5058659;28;19947;-61
2023/01/29 09:15:51;;;;;;;;;;;6.30;99.90;;;;;;5058607;28;19909;-61
2023/01/29 09:18:16;;;;;;;;;;;6.30;99.90;;;;;;5058765;28;19916;-61
2023/01/29 09:20:42;;;;;;;;;;;6.40;99.90;;;;;;5057585;28;19995;-61
2023/01/29 09:23:08;;;;;;;;;;;6.40;99.90;;;;;;5056901;28;20375;-60
2023/01/29 09:25:34;;;;;;;;;;;6.30;99.90;;;;;;5057904;28;19916;-59
2023/01/29 09:28:00;;;;;;;;;;;6.30;99.90;;;;;;5057669;28;19909;-60
2023/01/29 09:30:25;;;;;;;;;;;6.30;99.90;;;;;;5057818;28;19913;-59
2023/01/29 09:32:51;;;;;;;;;;;6.30;99.90;;;;;;5058270;28;19956;-59
2023/01/29 09:35:17;;;;;;;;;;;6.20;99.90;;;;;;5058502;28;19919;-59
2023/01/29 09:37:46;;;;;;;;;;;6.20;99.90;;;;;;5058126;28;19909;-59
2023/01/29 09:40:28;;;;;;;;;;;6.20;99.90;;;;;;5058202;28;20000;-59
2023/01/29 09:43:00;;;;;;;;;;;6.20;99.90;;;;;;5058196;28;19959;-59
2023/01/29 09:45:27;;;;;;;;;;;6.20;99.90;;;;;;5057846;28;20027;-59
2023/01/29 09:47:56;;;;;;;;;;;6.20;99.90;;;;;;5039336;28;20412;-59
2023/01/29 09:50:21;;;;;;;;;;;6.30;99.90;;;;;;5058072;28;19958;-59
2023/01/29 09:53:16;;;;;;;;;;;6.40;99.90;;;;;;5057999;28;19964;-59
2023/01/29 09:55:44;;;;;;;;;;;6.40;99.90;;;;;;5018543;28;20347;-59
2023/01/29 09:58:18;;;;;;;;;;;6.50;99.90;;;;;;5057937;28;19909;-59
2023/01/29 10:00:43;;;;;;;;;;;6.60;99.90;;;;;;5057228;28;19964;-59
2023/01/29 10:03:12;;;;;;;;;;;6.70;99.90;;;;;;5057168;28;19943;-59
2023/01/29 10:05:57;;;;;;;;;;;6.70;99.90;;;;;;5057621;28;19912;-59
2023/01/29 10:08:29;;;;;;;;;;;6.70;99.90;;;;;;5057651;28;19909;-59
2023/01/29 10:11:00;;;;;;;;;;;6.60;99.90;;;;;;5054839;28;19923;-59
2023/01/29 10:13:39;;;;;;;;;;;6.70;99.90;;;;;;5057783;28;19915;-59
2023/01/29 10:16:27;;;;;;;;;;;6.70;99.90;;;;;;5057673;28;20007;-59
2023/01/29 10:18:56;;;;;;;;;;;6.70;99.90;;;;;;5057763;28;20003;-59
2023/01/29 10:21:33;;;;;;;;;;;6.70;99.90;;;;;;5057552;28;19913;-59
2023/01/29 10:24:19;;;;;;;;;;;6.80;99.90;;;;;;5057317;28;19916;-59
2023/01/29 10:26:45;;;;;;;;;;;6.80;99.90;;;;;;4998807;28;19909;-59
2023/01/29 10:29:15;;;;;;;;;;;6.70;99.90;;;;;;5055938;28;19909;-59
2023/01/29 10:31:41;;;;;;;;;;;6.90;99.90;;;;;;5057510;28;19993;-59
2023/01/29 10:34:22;;;;;;;;;;;6.90;99.90;;;;;;5057202;28;19952;-59
2023/01/29 10:36:48;;;;;;;;;;;6.90;99.90;;;;;;5057265;28;20289;-59
2023/01/29 10:39:16;;;;;;;;;;;6.90;99.90;;;;;;5057490;28;19946;-59
2023/01/29 10:41:41;;;;;;;;;;;6.90;97.60;;;;;;5057177;28;20443;-59
2023/01/29 10:44:14;;;;;;;;;;;6.90;99.90;;;;;;5057443;28;20065;-59
2023/01/29 10:46:48;;;;;;;;;;;6.90;99.00;;;;;;5057604;28;19916;-59
2023/01/29 10:49:26;;;;;;;;;;;6.90;99.60;;;;;;5057335;28;19915;-59
2023/01/29 10:52:04;;;;;;;;;;;6.90;98.70;;;;;;5057416;28;20003;-59
2023/01/29 10:54:33;;;;;;;;;;;6.90;98.90;;;;;;5056187;28;20373;-59
2023/01/29 10:57:11;;;;;;;;;;;6.90;98.60;;;;;;5057150;28;19915;-59
2023/01/29 10:59:36;;;;;;;;;;;6.90;97.60;;;;;;5057449;28;19909;-59
2023/01/29 11:02:13;;;;;;;;;;;6.90;99.70;;;;;;5060537;28;19967;-59
2023/01/29 11:04:38;;;;;;;;;;;7.00;98.90;;;;;;5060950;28;19958;-59
2023/01/29 11:07:04;;;;;;;;;;;7.00;98.80;;;;;;5061107;28;19908;-59
2023/01/29 11:09:44;;;;;;;;;;;7.00;98.70;;;;;;5061086;28;19909;-59
2023/01/29 11:12:15;;;;;;;;;;;7.00;98.30;;;;;;5061248;28;19947;-58
2023/01/29 11:14:52;;;;;;;;;;;7.00;98.20;;;;;;5060580;28;19981;-59
2023/01/29 11:17:19;;;;;;;;;;;7.10;98.20;;;;;;5060225;28;19909;-59
2023/01/29 11:19:46;;;;;;;;;;;7.20;99.90;;;;;;5060000;28;19908;-59
2023/01/29 11:22:14;;;;;;;;;;;7.20;98.80;;;;;;5059729;28;19912;-58
2023/01/29 11:24:39;;;;;;;;;;;7.30;99.60;;;;;;5060129;28;19944;-59
2023/01/29 11:27:13;;;;;;;;;;;7.50;99.90;;;;;;5060470;28;19916;-59
2023/01/29 11:29:41;;;;;;;;;;;7.50;96.10;;;;;;5060726;28;19909;-59
2023/01/29 11:32:11;;;;;;;;;;;7.40;98.00;;;;;;5060709;28;19909;-59
2023/01/29 11:34:55;;;;;;;;;;;7.50;96.30;;;;;;5060950;28;19968;-59
2023/01/29 11:37:20;;;;;;;;;;;7.30;95.00;;;;;;5060397;28;20482;-59
2023/01/29 11:39:46;;;;;;;;;;;7.50;95.50;;;;;;5060709;28;20012;-59
2023/01/29 11:42:21;;;;;;;;;;;7.30;95.30;;;;;;5060675;28;19913;-59
2023/01/29 11:44:47;;;;;;;;;;;7.40;99.20;;;;;;5060321;28;19909;-59
2023/01/29 11:47:26;;;;;;;;;;;7.50;96.40;;;;;;5060396;28;20001;-59
2023/01/29 11:49:53;;;;;;;;;;;7.50;96.80;;;;;;5060168;28;19908;-59
2023/01/29 11:52:20;;;;;;;;;;;7.60;99.00;;;;;;5060225;28;19971;-59
2023/01/29 11:54:49;;;;;;;;;;;7.60;98.60;;;;;;5060008;28;19967;-59
2023/01/29 11:57:26;;;;;;;;;;;7.60;96.20;;;;;;5060228;28;19916;-59
2023/01/29 11:59:52;;;;;;;;;;;7.70;98.00;;;;;;5059716;28;20362;-59
2023/01/29 12:02:25;;;;;;;;;;;7.60;95.70;;;;;;5059638;28;19970;-59
2023/01/29 12:04:52;;;;;;;;;;;7.60;95.40;;;;;;5060100;28;19909;-59
2023/01/29 12:07:17;;;;;;;;;;;7.60;97.00;;;;;;5059816;28;19916;-59
2023/01/29 12:09:54;;;;;;;;;;;7.60;95.50;;;;;;5060230;28;19908;-59
2023/01/29 12:12:28;;;;;;;;;;;7.60;94.80;;;;;;5059265;28;19970;-59
2023/01/29 12:15:09;;;;;;;;;;;7.60;94.90;;;;;;5059852;28;20003;-59
2023/01/29 12:17:36;;;;;;;;;;;7.80;97.20;;;;;;5059792;28;19909;-59
2023/01/29 12:20:14;;;;;;;;;;;7.70;94.00;;;;;;5059858;28;19963;-59
2023/01/29 12:23:07;;;;;;;;;;;7.80;97.60;;;;;;5059432;28;19913;-59
2023/01/29 12:25:51;;;;;;;;;;;7.80;94.60;;;;;;5055814;28;20333;-59
2023/01/29 12:28:36;;;;;;;;;;;7.90;94.60;;;;;;5059285;28;19963;-59
2023/01/29 12:31:05;;;;;;;;;;;8.00;96.80;;;;;;5059080;28;19991;-58
2023/01/29 12:33:30;;;;;;;;;;;8.10;96.00;;;;;;5059517;28;19935;-59
2023/01/29 12:36:01;;;;;;;;;;;8.20;96.40;;;;;;5058707;28;19909;-60
2023/01/29 12:38:27;;;;;;;;;;;8.20;96.20;;;;;;5059291;28;19913;-59
2023/01/29 12:40:56;;;;;;;;;;;8.30;95.90;;;;;;5058948;28;19935;-59
2023/01/29 12:43:40;;;;;;;;;;;8.10;95.40;;;;;;5059177;28;19985;-58
2023/01/29 12:46:09;;;;;;;;;;;8.00;93.90;;;;;;5059258;28;19909;-59
2023/01/29 12:48:36;;;;;;;;;;;8.00;96.50;;;;;;5059227;28;20402;-59
2023/01/29 12:51:07;;;;;;;;;;;7.80;95.80;;;;;;5058938;28;19909;-59
2023/01/29 12:53:36;;;;;;;;;;;8.00;98.20;;;;;;5058408;28;20257;-59
2023/01/29 12:56:04;;;;;;;;;;;8.10;97.20;;;;;;5058776;28;20388;-59
2023/01/29 12:58:42;;;;;;;;;;;8.30;98.80;;;;;;5059058;28;20028;-59
2023/01/29 13:01:34;;;;;;;;;;;8.30;95.60;;;;;;5058387;28;19955;-59
2023/01/29 13:04:13;;;;;;;;;;;8.20;96.60;;;;;;5053893;28;19999;-60
2023/01/29 13:06:41;;;;;;;;;;;8.40;97.60;;;;;;5059033;28;19908;-59
2023/01/29 13:09:16;;;;;;;;;;;8.50;98.20;;;;;;5058681;28;19909;-59
2023/01/29 13:11:49;;;;;;;;;;;8.40;97.20;;;;;;5058910;28;19923;-59
2023/01/29 13:14:33;;;;;;;;;;;8.50;97.30;;;;;;5058459;28;19954;-60
2023/01/29 13:17:17;;;;;;;;;;;8.50;96.70;;;;;;5058317;28;20007;-59
2023/01/29 13:19:44;;;;;;;;;;;8.50;98.40;;;;;;5058391;28;19984;-60
2023/01/29 13:22:20;;;;;;;;;;;8.60;98.60;;;;;;5057843;28;20357;-59
2023/01/29 13:24:46;;;;;;;;;;;8.40;95.80;;;;;;5058261;28;19948;-59
2023/01/29 13:27:19;;;;;;;;;;;8.20;96.40;;;;;;5058269;28;20295;-59
2023/01/29 13:29:45;;;;;;;;;;;8.10;97.20;;;;;;5058673;28;20007;-60
2023/01/29 13:32:19;;;;;;;;;;;8.00;97.90;;;;;;5058173;28;19955;-60
2023/01/29 13:34:45;;;;;;;;;;;8.00;98.30;;;;;;5058612;28;19909;-59
2023/01/29 13:37:16;;;;;;;;;;;8.10;98.50;;;;;;5057552;28;20353;-59
2023/01/29 13:39:46;;;;;;;;;;;8.00;97.20;;;;;;5058201;28;19960;-59
2023/01/29 13:42:15;;;;;;;;;;;8.00;97.10;;;;;;5057879;28;19912;-59
2023/01/29 13:44:41;;;;;;;;;;;8.00;97.40;;;;;;5058244;28;20042;-59
2023/01/29 13:47:09;;;;;;;;;;;8.00;98.00;;;;;;5057828;28;19954;-59
2023/01/29 13:49:38;;;;;;;;;;;8.10;98.80;;;;;;5057748;28;19916;-59
2023/01/29 13:52:22;;;;;;;;;;;8.00;98.10;;;;;;5057795;28;19972;-59
2023/01/29 13:54:54;;;;;;;;;;;8.00;98.60;;;;;;5057564;28;19916;-59
2023/01/29 13:57:36;;;;;;;;;;;8.20;99.00;;;;;;5057771;28;19909;-59
2023/01/29 14:00:03;;;;;;;;;;;8.20;98.30;;;;;;5057805;28;19916;-59
2023/01/29 14:02:29;;;;;;;;;;;8.30;98.60;;;;;;5057772;28;19935;-59
2023/01/29 14:05:13;;;;;;;;;;;8.20;98.20;;;;;;5057569;28;19996;-59
2023/01/29 14:07:42;;;;;;;;;;;8.20;97.70;;;;;;5057929;28;19908;-59
2023/01/29 14:10:15;;;;;;;;;;;8.20;98.80;;;;;;5057854;28;20338;-59
2023/01/29 14:12:41;;;;;;;;;;;8.30;98.90;;;;;;5057727;28;19908;-59
2023/01/29 14:15:15;;;;;;;;;;;8.30;98.50;;;;;;5057864;28;19947;-59
2023/01/29 14:17:53;;;;;;;;;;;8.30;98.20;;;;;;5057498;28;19947;-59
2023/01/29 14:20:20;;;;;;;;;;;8.20;98.90;;;;;;5057738;28;19913;-60
2023/01/29 14:22:53;;;;;;;;;;;8.20;98.40;;;;;;5057729;28;19912;-59
2023/01/29 14:25:19;;;;;;;;;;;8.20;98.50;;;;;;5057485;28;19909;-60
2023/01/29 14:27:48;;;;;;;;;;;8.20;98.50;;;;;;5057897;28;19909;-59
2023/01/29 14:30:17;;;;;;;;;;;8.20;98.30;;;;;;5057699;28;19909;-58
2023/01/29 14:32:46;;;;;;;;;;;8.20;98.80;;;;;;5057296;28;19916;-59
2023/01/29 14:35:17;;;;;;;;;;;8.20;99.40;;;;;;5060423;28;19958;-60
2023/01/29 14:37:45;;;;;;;;;;;8.20;99.10;;;;;;5061398;28;20335;-60
2023/01/29 14:40:11;;;;;;;;;;;8.20;98.90;;;;;;5061919;28;19909;-59
2023/01/29 14:42:38;;;;;;;;;;;8.10;98.60;;;;;;5061326;28;19912;-59
2023/01/29 14:45:07;;;;;;;;;;;8.10;98.40;;;;;;5061340;28;19908;-59
2023/01/29 14:47:32;;;;;;;;;;;8.10;99.00;;;;;;5061387;28;19915;-59
2023/01/29 14:49:58;;;;;;;;;;;8.10;99.40;;;;;;5061152;28;19912;-59
2023/01/29 14:52:38;;;;;;;;;;;8.20;99.40;;;;;;5061484;28;19909;-59
2023/01/29 14:55:13;;;;;;;;;;;8.10;98.80;;;;;;5061474;28;19916;-59
2023/01/29 14:57:40;;;;;;;;;;;8.10;99.10;;;;;;5061109;28;19916;-59
2023/01/29 15:00:12;;;;;;;;;;;8.00;99.40;;;;;;5061124;28;19909;-59
2023/01/29 15:02:40;;;;;;;;;;;7.90;99.10;;;;;;5061099;28;19943;-59
2023/01/29 15:05:09;;;;;;;;;;;7.80;99.70;;;;;;5061151;28;20444;-59
2023/01/29 15:07:38;;;;;;;;;;;7.90;99.80;;;;;;5061004;28;19940;-59
2023/01/29 15:10:03;;;;;;;;;;;7.90;99.70;;;;;;5060828;28;19931;-60
2023/01/29 15:12:49;;;;;;;;;;;8.00;99.80;;;;;;5061006;28;19909;-60